Time;durP1;ratioP1;P1;durP2;ratioP2;P2;SDS_P1;SDS_P2;PMS_P1;PMS_P2;Temp;Humidity;BMP_temperature;BMP_pressure;BME280_temperature;BME280_humidity;BME280_pressure;Samples;Min_cycle;Max_cycle;Signal;HPM_P1;HPM_P2
2023/07/15 00:00:21;;;;;;;4.00;1.20;;;25.40;93.00;;;;;;7285888;19;20193;-77
2023/07/15 00:02:47;;;;;;;4.95;1.08;;;25.40;92.60;;;;;;7283696;19;20307;-74
2023/07/15 00:05:25;;;;;;;2.97;1.20;;;25.30;92.80;;;;;;7291930;19;20640;-74
2023/07/15 00:07:51;;;;;;;7.28;1.30;;;25.20;92.90;;;;;;7284746;19;20236;-74
2023/07/15 00:10:17;;;;;;;3.55;1.08;;;25.20;93.10;;;;;;7285141;19;20528;-75
2023/07/15 00:12:43;;;;;;;7.75;1.40;;;25.20;93.10;;;;;;7287000;19;20181;-74
2023/07/15 00:15:11;;;;;;;4.93;1.33;;;25.10;93.50;;;;;;7306225;19;20280;-74
2023/07/15 00:17:38;;;;;;;4.13;1.08;;;25.00;93.50;;;;;;7285225;19;20188;-74
2023/07/15 00:20:07;;;;;;;6.18;1.55;;;25.00;93.80;;;;;;7283771;19;20229;-74
2023/07/15 00:22:35;;;;;;;6.68;1.38;;;25.00;93.80;;;;;;7283484;19;20302;-74
2023/07/15 00:25:02;;;;;;;3.30;1.17;;;25.00;93.70;;;;;;7284730;19;20195;-74
2023/07/15 00:27:27;;;;;;;2.35;1.10;;;25.00;93.90;;;;;;7284518;19;20268;-74
2023/07/15 00:29:53;;;;;;;5.05;1.40;;;24.90;94.10;;;;;;7284019;19;20244;-74
2023/07/15 00:32:19;;;;;;;5.63;1.33;;;24.90;94.20;;;;;;7284103;19;20204;-74
2023/07/15 00:34:47;;;;;;;5.80;1.20;;;25.00;94.10;;;;;;7280857;19;20189;-74
2023/07/15 00:37:12;;;;;;;3.60;1.20;;;25.10;93.90;;;;;;7290147;19;20199;-74
2023/07/15 00:39:40;;;;;;;4.53;1.17;;;25.10;93.90;;;;;;7305354;19;20188;-74
2023/07/15 00:42:12;;;;;;;2.35;0.95;;;25.10;94.10;;;;;;7284875;19;20185;-75
2023/07/15 00:44:38;;;;;;;3.92;1.33;;;25.10;94.20;;;;;;7282288;19;20189;-74
2023/07/15 00:47:21;;;;;;;1.40;1.00;;;25.10;94.10;;;;;;7283110;19;20197;-75
2023/07/15 00:49:49;;;;;;;3.55;1.20;;;25.20;94.20;;;;;;7181405;19;2004419;-75
2023/07/15 00:52:19;;;;;;;6.30;1.15;;;25.20;94.20;;;;;;7283431;19;20181;-74
2023/07/15 00:54:48;;;;;;;4.63;1.10;;;25.20;93.90;;;;;;7282802;19;20192;-74
2023/07/15 00:57:15;;;;;;;5.35;1.25;;;25.20;94.20;;;;;;7283125;19;20176;-74
2023/07/15 00:59:43;;;;;;;6.03;1.30;;;25.10;94.30;;;;;;7304576;19;20227;-74
2023/07/15 01:02:09;;;;;;;4.65;1.50;;;24.90;94.50;;;;;;7281553;19;20197;-74
2023/07/15 01:04:35;;;;;;;4.57;1.25;;;24.80;94.80;;;;;;7282796;19;20224;-74
2023/07/15 01:07:04;;;;;;;4.43;1.40;;;24.80;94.90;;;;;;7281719;19;21786;-75
2023/07/15 01:09:30;;;;;;;8.40;1.35;;;24.80;95.10;;;;;;7282567;19;20200;-74
2023/07/15 01:11:56;;;;;;;2.60;1.40;;;24.70;95.50;;;;;;7282212;19;20192;-75
2023/07/15 01:14:22;;;;;;;3.63;1.10;;;24.60;95.40;;;;;;7281869;19;20193;-74
2023/07/15 01:16:47;;;;;;;3.30;1.40;;;24.50;95.60;;;;;;7283001;19;20197;-74
2023/07/15 01:19:18;;;;;;;2.28;1.13;;;24.40;95.70;;;;;;7286369;19;20222;-74
2023/07/15 01:21:48;;;;;;;3.25;1.40;;;24.40;96.30;;;;;;7281835;19;20185;-74
2023/07/15 01:24:14;;;;;;;5.60;1.33;;;24.30;96.00;;;;;;7282938;19;20196;-75
2023/07/15 01:26:40;;;;;;;2.55;1.13;;;24.20;96.10;;;;;;7302964;19;20188;-74
2023/07/15 01:29:05;;;;;;;4.90;1.52;;;24.10;96.50;;;;;;7282031;19;20290;-74
2023/07/15 01:31:32;;;;;;;4.07;1.40;;;24.10;96.60;;;;;;7282330;19;20266;-75
2023/07/15 01:33:57;;;;;;;4.90;1.50;;;24.00;97.00;;;;;;7283134;19;20210;-75
2023/07/15 01:36:25;;;;;;;3.33;1.40;;;24.00;97.20;;;;;;7283588;19;20552;-75
2023/07/15 01:38:51;;;;;;;3.22;1.27;;;23.90;97.40;;;;;;7282354;19;20659;-73
2023/07/15 01:41:17;;;;;;;5.28;1.40;;;23.80;97.40;;;;;;7281712;19;20181;-75
2023/07/15 01:43:43;;;;;;;5.55;1.30;;;23.80;97.70;;;;;;7284562;19;20200;-75
2023/07/15 01:46:10;;;;;;;3.53;1.55;;;23.70;97.70;;;;;;7304583;19;20209;-74
2023/07/15 01:48:36;;;;;;;4.22;1.38;;;23.70;97.90;;;;;;7281421;19;20185;-74
2023/07/15 01:51:01;;;;;;;6.25;1.38;;;23.60;98.10;;;;;;7281407;19;20202;-74
2023/07/15 01:53:27;;;;;;;5.05;1.50;;;23.50;98.30;;;;;;7281430;19;20184;-73
2023/07/15 01:55:53;;;;;;;3.85;1.10;;;23.60;98.30;;;;;;7279716;19;20193;-74
2023/07/15 01:58:20;;;;;;;5.72;1.25;;;23.50;98.50;;;;;;7279854;19;20203;-74
2023/07/15 02:00:47;;;;;;;5.43;1.27;;;23.40;98.90;;;;;;7280345;19;20216;-74
2023/07/15 02:03:13;;;;;;;5.07;1.17;;;23.20;99.30;;;;;;7291750;19;20196;-73
2023/07/15 02:05:38;;;;;;;4.07;1.30;;;23.20;99.70;;;;;;7301600;19;20192;-74
2023/07/15 02:08:04;;;;;;;2.87;1.20;;;22.90;99.90;;;;;;7279934;19;20552;-74
2023/07/15 02:10:32;;;;;;;3.67;1.30;;;22.90;99.90;;;;;;7279594;19;20194;-74
2023/07/15 02:12:57;;;;;;;5.40;1.40;;;22.90;99.90;;;;;;7280748;19;20555;-73
2023/07/15 02:15:23;;;;;;;4.87;1.80;;;22.90;99.90;;;;;;7279672;19;20196;-74
2023/07/15 02:17:50;;;;;;;9.25;1.60;;;22.80;99.90;;;;;;7282193;19;20672;-74
2023/07/15 02:20:15;;;;;;;5.23;1.53;;;22.70;99.90;;;;;;7279878;19;20184;-74
2023/07/15 02:22:42;;;;;;;4.50;1.20;;;22.60;99.90;;;;;;7301956;19;20234;-74
2023/07/15 02:25:09;;;;;;;2.70;1.33;;;22.60;99.90;;;;;;7281899;19;20214;-78
2023/07/15 02:27:35;;;;;;;4.57;1.40;;;22.60;99.90;;;;;;7280856;19;20185;-78
2023/07/15 02:30:01;;;;;;;2.60;1.20;;;22.60;99.90;;;;;;7282610;19;20203;-78
2023/07/15 02:32:36;;;;;;;6.57;1.57;;;22.50;99.90;;;;;;7282090;19;20567;-78
2023/07/15 02:35:03;;;;;;;3.47;1.40;;;22.50;99.90;;;;;;7278178;19;20197;-73
2023/07/15 02:37:29;;;;;;;3.93;1.50;;;22.50;99.90;;;;;;7279998;19;20193;-74
2023/07/15 02:39:55;;;;;;;5.30;1.20;;;22.40;99.90;;;;;;7279216;19;20198;-74
2023/07/15 02:42:21;;;;;;;3.83;1.20;;;22.30;99.90;;;;;;7279394;19;20185;-74
2023/07/15 02:44:47;;;;;;;2.90;1.40;;;22.40;99.90;;;;;;7280029;19;20205;-74
2023/07/15 02:47:12;;;;;;;3.10;1.27;;;22.30;99.90;;;;;;7291459;19;20206;-74
2023/07/15 02:49:38;;;;;;;3.00;1.33;;;22.30;99.90;;;;;;7296135;19;20248;-74
2023/07/15 02:52:04;;;;;;;4.70;1.50;;;22.20;99.90;;;;;;7278896;19;20219;-74
2023/07/15 02:54:30;;;;;;;3.90;1.60;;;22.20;99.90;;;;;;7277097;19;20209;-74
2023/07/15 02:56:56;;;;;;;6.27;1.50;;;22.20;99.90;;;;;;7278988;19;20597;-74
2023/07/15 02:59:22;;;;;;;2.87;1.30;;;22.30;99.90;;;;;;7278369;19;20214;-74
2023/07/15 03:01:48;;;;;;;5.50;1.37;;;22.30;99.90;;;;;;7278875;19;20671;-75
2023/07/15 03:04:14;;;;;;;6.90;1.50;;;22.30;99.90;;;;;;7279213;19;20208;-75
2023/07/15 03:06:41;;;;;;;3.87;1.40;;;22.20;99.90;;;;;;7299948;19;20184;-75
2023/07/15 03:09:07;;;;;;;10.70;1.50;;;22.30;99.90;;;;;;7279882;19;20208;-78
2023/07/15 03:11:33;;;;;;;6.13;1.40;;;22.40;99.90;;;;;;7279811;19;20943;-77
2023/07/15 03:13:59;;;;;;;2.70;1.17;;;22.40;99.90;;;;;;7278247;19;20515;-74
2023/07/15 03:16:25;;;;;;;4.87;1.43;;;22.40;99.90;;;;;;7280086;19;20547;-75
2023/07/15 03:18:50;;;;;;;5.20;1.57;;;22.40;99.90;;;;;;7276217;19;20180;-74
2023/07/15 03:21:16;;;;;;;5.03;1.60;;;22.40;99.90;;;;;;7277451;19;20180;-74
2023/07/15 03:23:42;;;;;;;2.80;1.20;;;22.30;99.90;;;;;;7300257;19;20744;-75
2023/07/15 03:26:09;;;;;;;4.50;1.33;;;22.40;99.90;;;;;;7300807;19;20184;-74
2023/07/15 03:28:34;;;;;;;4.47;1.50;;;22.40;99.90;;;;;;7278351;19;20664;-74
2023/07/15 03:31:00;;;;;;;5.50;1.50;;;22.40;99.90;;;;;;7277597;19;20185;-74
2023/07/15 03:33:26;;;;;;;5.17;1.60;;;22.40;99.90;;;;;;7279355;19;20257;-74
2023/07/15 03:35:52;;;;;;;3.47;1.37;;;22.40;99.90;;;;;;7277860;19;20734;-74
2023/07/15 03:38:20;;;;;;;4.87;1.70;;;22.30;99.90;;;;;;7278055;19;20181;-73
2023/07/15 03:40:49;;;;;;;4.67;1.50;;;22.20;99.90;;;;;;7278631;19;20963;-73
2023/07/15 03:43:16;;;;;;;6.20;1.50;;;22.20;99.90;;;;;;7279007;19;20280;-74
2023/07/15 03:45:41;;;;;;;5.80;1.90;;;22.20;99.90;;;;;;7300549;19;20177;-75
2023/07/15 03:48:07;;;;;;;4.07;1.37;;;22.20;99.90;;;;;;7278454;19;20719;-74
2023/07/15 03:50:32;;;;;;;5.93;2.00;;;22.30;99.90;;;;;;7278388;19;20611;-73
2023/07/15 03:52:58;;;;;;;4.93;1.70;;;22.30;99.90;;;;;;7277548;19;20581;-74
2023/07/15 03:55:24;;;;;;;3.93;1.60;;;22.40;99.90;;;;;;7277137;19;20184;-74
2023/07/15 03:57:49;;;;;;;5.50;1.50;;;22.40;99.90;;;;;;7278005;19;20192;-74
2023/07/15 04:00:17;;;;;;;5.80;1.47;;;22.40;99.90;;;;;;7277415;19;20189;-75
2023/07/15 04:02:45;;;;;;;4.30;1.30;;;22.50;99.90;;;;;;7287387;19;20196;-74
2023/07/15 04:05:11;;;;;;;3.60;1.40;;;22.50;99.90;;;;;;7301419;19;20200;-75
2023/07/15 04:07:37;;;;;;;4.67;1.67;;;22.60;99.90;;;;;;7277312;19;20542;-74
2023/07/15 04:10:03;;;;;;;2.87;1.27;;;22.70;99.90;;;;;;7278634;19;20552;-74
2023/07/15 04:12:29;;;;;;;4.87;1.20;;;22.80;99.90;;;;;;7322618;19;20741;-74
2023/07/15 04:14:55;;;;;;;3.87;1.13;;;22.90;99.90;;;;;;7392354;19;20296;-77
2023/07/15 04:17:21;;;;;;;2.50;1.30;;;22.90;99.90;;;;;;7371437;19;20220;-77
2023/07/15 04:19:46;;;;;;;5.10;1.30;;;23.00;99.90;;;;;;7281643;19;20195;-77
2023/07/15 04:22:13;;;;;;;5.07;1.57;;;23.00;99.90;;;;;;7298863;19;20224;-76
2023/07/15 04:24:38;;;;;;;6.63;1.27;;;23.10;99.90;;;;;;7300049;19;20571;-77
2023/07/15 04:27:04;;;;;;;5.93;1.20;;;23.10;99.90;;;;;;7276982;19;20185;-74
2023/07/15 04:29:30;;;;;;;4.37;1.20;;;23.20;99.90;;;;;;7277815;19;20185;-74
2023/07/15 04:31:57;;;;;;;2.73;1.30;;;23.30;99.90;;;;;;7283433;19;20296;-74
2023/07/15 04:34:22;;;;;;;5.37;1.10;;;23.30;99.90;;;;;;7283778;19;20184;-74
2023/07/15 04:36:49;;;;;;;4.63;1.20;;;23.40;99.90;;;;;;7284610;19;20192;-74
2023/07/15 04:39:15;;;;;;;4.10;0.90;;;23.50;99.90;;;;;;7282150;19;20189;-74
2023/07/15 04:41:41;;;;;;;3.37;0.97;;;23.60;99.90;;;;;;7303115;19;20214;-74
2023/07/15 04:44:06;;;;;;;7.47;1.15;;;23.60;99.90;;;;;;7284787;19;20219;-74
2023/07/15 04:46:32;;;;;;;4.80;1.10;;;23.60;99.90;;;;;;7282880;19;20689;-74
2023/07/15 04:48:58;;;;;;;3.30;1.10;;;23.60;99.90;;;;;;7283319;19;20196;-74
2023/07/15 04:51:24;;;;;;;2.72;1.20;;;23.70;99.90;;;;;;7283601;19;20192;-75
2023/07/15 04:53:50;;;;;;;5.27;1.20;;;23.70;99.90;;;;;;7283316;19;20561;-73
2023/07/15 04:56:16;;;;;;;1.55;0.90;;;23.70;99.90;;;;;;7282132;19;20280;-74
2023/07/15 04:58:42;;;;;;;2.90;1.10;;;23.80;99.90;;;;;;7301321;19;20772;-74
2023/07/15 05:01:08;;;;;;;3.90;1.00;;;23.80;99.90;;;;;;7294459;19;20201;-74
2023/07/15 05:03:33;;;;;;;5.65;1.40;;;23.80;99.90;;;;;;7282449;19;20260;-74
2023/07/15 05:06:00;;;;;;;5.72;1.40;;;24.00;99.90;;;;;;7283648;19;20645;-74
2023/07/15 05:08:27;;;;;;;6.28;1.20;;;24.20;99.90;;;;;;7283591;19;20199;-74
2023/07/15 05:10:53;;;;;;;5.55;1.27;;;24.40;99.90;;;;;;7282985;19;20208;-77
2023/07/15 05:13:19;;;;;;;3.00;1.17;;;24.40;99.90;;;;;;7283985;19;20193;-77
2023/07/15 05:15:45;;;;;;;5.35;1.20;;;24.70;99.90;;;;;;7281670;19;20199;-77
2023/07/15 05:18:10;;;;;;;6.45;1.30;;;24.70;99.90;;;;;;7306080;19;20192;-78
2023/07/15 05:20:37;;;;;;;2.78;1.27;;;24.80;99.90;;;;;;7283677;19;20192;-79
2023/07/15 05:23:04;;;;;;;4.53;1.33;;;24.60;99.90;;;;;;7285171;19;20197;-77
2023/07/15 05:25:31;;;;;;;4.07;1.13;;;24.50;99.90;;;;;;7284176;19;20193;-79
2023/07/15 05:27:57;;;;;;;4.05;1.20;;;24.50;99.90;;;;;;7282718;19;20684;-78
2023/07/15 05:30:23;;;;;;;3.58;1.63;;;24.50;99.90;;;;;;7284818;19;20185;-79
2023/07/15 05:32:49;;;;;;;3.58;1.10;;;24.50;99.90;;;;;;7284027;19;20188;-79
2023/07/15 05:35:15;;;;;;;3.25;1.40;;;24.60;99.90;;;;;;7283628;19;20184;-78
2023/07/15 05:37:41;;;;;;;3.85;1.30;;;24.80;99.90;;;;;;7305367;19;20185;-79
2023/07/15 05:40:12;;;;;;;3.65;1.27;;;25.20;99.90;;;;;;7283599;19;20200;-78
2023/07/15 05:42:41;;;;;;;5.63;1.60;;;26.80;99.90;;;;;;7282897;19;20200;-78
2023/07/15 05:45:08;;;;;;;5.85;1.35;;;26.60;99.90;;;;;;7283492;19;20683;-78
2023/07/15 05:47:34;;;;;;;5.05;1.30;;;27.70;99.90;;;;;;7282627;19;20252;-79
2023/07/15 05:50:01;;;;;;;3.28;1.30;;;28.90;99.90;;;;;;7284544;19;20282;-79
2023/07/15 05:52:27;;;;;;;6.63;1.38;;;28.90;99.90;;;;;;7284265;19;20584;-78
2023/07/15 05:54:54;;;;;;;4.05;1.33;;;28.00;99.90;;;;;;7283804;19;20185;-78
2023/07/15 05:57:19;;;;;;;7.05;1.52;;;27.00;99.90;;;;;;7283800;19;20212;-78
2023/07/15 05:59:45;;;;;;;2.88;1.50;;;26.50;99.90;;;;;;7282439;19;20189;-77
2023/07/15 06:02:11;;;;;;;4.78;1.40;;;26.20;99.90;;;;;;7304253;19;20193;-78
2023/07/15 06:04:37;;;;;;;4.20;1.58;;;26.10;99.90;;;;;;7282727;19;20193;-78
2023/07/15 06:07:02;;;;;;;4.70;1.33;;;26.10;99.90;;;;;;7282919;19;20253;-79
2023/07/15 06:09:28;;;;;;;4.32;1.25;;;26.50;99.90;;;;;;7284402;19;20193;-79
2023/07/15 06:11:54;;;;;;;5.05;1.40;;;27.10;99.90;;;;;;7282784;19;20299;-78
2023/07/15 06:14:20;;;;;;;4.97;1.15;;;27.20;99.90;;;;;;7281914;19;20197;-78
2023/07/15 06:16:45;;;;;;;4.53;1.65;;;27.50;99.90;;;;;;7282509;19;20184;-77
2023/07/15 06:19:11;;;;;;;3.80;1.25;;;28.50;99.90;;;;;;7304059;19;20205;-78
2023/07/15 06:21:37;;;;;;;4.90;1.50;;;30.00;99.90;;;;;;7280068;19;20199;-78
2023/07/15 06:24:03;;;;;;;5.47;1.40;;;29.50;99.90;;;;;;7283756;19;20210;-78
2023/07/15 06:26:30;;;;;;;3.95;1.63;;;28.60;99.90;;;;;;7280550;19;20185;-79
2023/07/15 06:28:56;;;;;;;7.07;1.80;;;28.40;99.90;;;;;;7282690;19;20206;-77
2023/07/15 06:31:21;;;;;;;3.50;1.35;;;28.30;99.90;;;;;;7281114;19;20185;-78
2023/07/15 06:33:48;;;;;;;4.55;1.67;;;28.40;99.90;;;;;;7281833;19;20200;-74
2023/07/15 06:36:15;;;;;;;4.45;1.55;;;28.30;99.90;;;;;;7283400;19;20200;-74
2023/07/15 06:38:40;;;;;;;5.13;1.55;;;28.40;99.90;;;;;;7303389;19;20192;-74
2023/07/15 06:41:06;;;;;;;3.38;1.30;;;28.30;99.90;;;;;;7280203;19;20250;-74
2023/07/15 06:43:32;;;;;;;5.05;1.75;;;28.40;99.90;;;;;;7280638;19;20818;-75
2023/07/15 06:45:58;;;;;;;5.53;1.67;;;28.90;99.90;;;;;;7280422;19;20657;-75
2023/07/15 06:48:23;;;;;;;4.10;1.50;;;29.10;99.90;;;;;;7280020;19;20193;-76
2023/07/15 06:50:49;;;;;;;5.28;1.40;;;29.30;99.90;;;;;;7279721;19;20641;-74
2023/07/15 06:53:15;;;;;;;5.60;1.48;;;29.60;99.90;;;;;;7279539;19;20203;-75
2023/07/15 06:55:41;;;;;;;6.30;1.63;;;29.50;99.90;;;;;;7300580;19;20197;-75
2023/07/15 06:58:07;;;;;;;3.13;1.25;;;29.40;99.90;;;;;;7280423;19;20184;-75
2023/07/15 07:00:33;;;;;;;3.78;1.40;;;30.70;99.90;;;;;;7280006;19;20194;-74
2023/07/15 07:02:59;;;;;;;8.95;1.58;;;31.30;99.90;;;;;;7279645;19;20189;-74
2023/07/15 07:05:26;;;;;;;5.20;1.50;;;31.30;99.90;;;;;;7279425;19;20689;-74
2023/07/15 07:07:52;;;;;;;3.30;1.40;;;31.30;99.90;;;;;;7278721;19;20196;-75
2023/07/15 07:10:18;;;;;;;4.63;1.48;;;31.10;99.90;;;;;;7281406;19;20558;-74
2023/07/15 07:12:44;;;;;;;4.65;1.60;;;31.60;99.90;;;;;;7284967;19;20195;-74
2023/07/15 07:15:10;;;;;;;4.30;1.50;;;32.60;99.90;;;;;;7300430;19;20189;-74
2023/07/15 07:17:35;;;;;;;5.05;1.40;;;33.20;99.90;;;;;;7280637;19;20192;-74
2023/07/15 07:20:03;;;;;;;3.70;1.63;;;33.80;99.90;;;;;;7280005;19;20192;-73
2023/07/15 07:22:29;;;;;;;3.63;1.20;;;34.40;99.90;;;;;;7279182;19;20189;-74
2023/07/15 07:24:58;;;;;;;5.95;1.50;;;33.70;99.90;;;;;;7278650;19;20252;-74
2023/07/15 07:27:26;;;;;;;4.60;1.35;;;32.70;99.90;;;;;;7278738;19;20189;-75
2023/07/15 07:29:58;;;;;;;3.45;1.45;;;32.10;99.90;;;;;;7279434;19;20225;-75
2023/07/15 07:32:24;;;;;;;8.82;1.67;;;32.10;99.90;;;;;;7279993;19;20646;-74
2023/07/15 07:34:49;;;;;;;6.30;1.45;;;32.30;99.90;;;;;;7278575;19;20184;-75
2023/07/15 07:37:15;;;;;;;4.05;1.60;;;33.80;99.90;;;;;;7280328;19;20185;-75
2023/07/15 07:39:41;;;;;;;3.85;1.52;;;33.70;99.90;;;;;;7301983;19;20196;-75
2023/07/15 07:42:08;;;;;;;3.13;1.38;;;33.80;99.90;;;;;;7279256;19;21352;-74
2023/07/15 07:44:34;;;;;;;6.07;1.45;;;35.50;97.80;;;;;;7280071;19;20178;-74
2023/07/15 07:47:00;;;;;;;6.68;1.80;;;36.40;95.50;;;;;;7279098;19;21368;-75
2023/07/15 07:49:25;;;;;;;3.53;1.52;;;36.70;94.80;;;;;;7278947;19;20202;-74
2023/07/15 07:51:51;;;;;;;6.25;1.60;;;35.70;94.10;;;;;;7277748;19;20193;-74
2023/07/15 07:54:16;;;;;;;5.32;1.52;;;34.10;94.50;;;;;;7278408;19;20188;-74
2023/07/15 07:56:42;;;;;;;4.95;1.52;;;33.20;96.20;;;;;;7300434;19;20283;-75
2023/07/15 07:59:08;;;;;;;5.60;1.88;;;31.80;97.50;;;;;;7286091;19;20303;-74
2023/07/15 08:01:34;;;;;;;7.05;1.95;;;31.30;99.10;;;;;;7278135;19;20649;-74
2023/07/15 08:04:00;;;;;;;5.07;1.80;;;30.10;99.90;;;;;;7278123;19;20226;-75
2023/07/15 08:06:26;;;;;;;3.97;1.60;;;29.90;99.90;;;;;;7284426;19;20656;-74
2023/07/15 08:08:53;;;;;;;6.82;1.85;;;29.80;99.90;;;;;;7283191;19;20648;-74
2023/07/15 08:11:18;;;;;;;7.55;1.80;;;29.10;99.90;;;;;;7284113;19;20212;-74
2023/07/15 08:13:44;;;;;;;5.88;1.80;;;27.90;99.90;;;;;;7283765;19;20644;-74
2023/07/15 08:16:29;;;;;;;4.38;1.38;;;27.50;99.90;;;;;;7306578;19;20624;-74
2023/07/15 08:18:56;;;;;;;5.13;1.83;;;27.10;99.90;;;;;;7181060;19;2005067;-74
2023/07/15 08:21:22;;;;;;;6.03;1.70;;;26.70;99.90;;;;;;7282786;19;20220;-74
2023/07/15 08:23:47;;;;;;;3.00;1.38;;;26.60;99.90;;;;;;7284834;19;20193;-75
2023/07/15 08:26:13;;;;;;;4.97;2.00;;;26.70;99.90;;;;;;7298230;19;20181;-75
2023/07/15 08:28:39;;;;;;;5.38;1.90;;;26.90;99.90;;;;;;7298842;19;20193;-74
2023/07/15 08:31:04;;;;;;;4.30;1.58;;;26.90;99.90;;;;;;7283904;19;20196;-74
2023/07/15 08:33:30;;;;;;;4.03;1.60;;;26.90;99.90;;;;;;7283644;19;20627;-74
2023/07/15 08:35:56;;;;;;;5.00;1.50;;;26.40;99.90;;;;;;7281600;19;20185;-74
2023/07/15 08:38:22;;;;;;;5.72;1.60;;;25.90;99.90;;;;;;7283714;19;20193;-74
2023/07/15 08:40:50;;;;;;;6.13;1.70;;;25.40;99.90;;;;;;7283221;19;20723;-75
2023/07/15 08:43:19;;;;;;;5.90;1.55;;;25.20;99.90;;;;;;7283770;19;20189;-74
2023/07/15 08:45:46;;;;;;;5.05;1.80;;;25.20;99.90;;;;;;7282858;19;20219;-75
2023/07/15 08:48:12;;;;;;;7.15;1.67;;;25.40;99.90;;;;;;7305245;19;20185;-74
2023/07/15 08:50:39;;;;;;;6.47;1.58;;;25.90;99.90;;;;;;7283422;19;20189;-74
2023/07/15 08:53:04;;;;;;;5.43;1.65;;;26.40;99.90;;;;;;7283299;19;20202;-74
2023/07/15 08:55:31;;;;;;;7.63;1.75;;;26.00;99.90;;;;;;7281154;19;20196;-74
2023/07/15 08:57:58;;;;;;;5.93;1.40;;;25.40;99.90;;;;;;7282667;19;20766;-75
2023/07/15 09:00:24;;;;;;;4.63;1.83;;;25.40;99.90;;;;;;7283353;19;20189;-75
2023/07/15 09:02:53;;;;;;;7.28;1.45;;;25.30;99.90;;;;;;7283170;19;20200;-74
2023/07/15 09:05:19;;;;;;;6.20;1.83;;;25.40;99.90;;;;;;7280961;19;20197;-74
2023/07/15 09:07:59;;;;;;;3.53;1.50;;;25.20;99.90;;;;;;7283112;19;20192;-74
2023/07/15 09:10:28;;;;;;;7.50;1.75;;;24.90;99.90;;;;;;7281802;19;20189;-74
2023/07/15 09:12:55;;;;;;;2.88;1.35;;;24.70;99.90;;;;;;7282554;19;20188;-74
2023/07/15 09:15:21;;;;;;;5.28;1.63;;;24.30;99.90;;;;;;7281743;19;20256;-74
2023/07/15 09:17:55;;;;;;;3.33;1.47;;;23.90;99.90;;;;;;7277751;19;20666;-74
2023/07/15 09:20:24;;;;;;;4.53;1.80;;;23.60;99.90;;;;;;7282775;19;20203;-74
2023/07/15 09:23:00;;;;;;;4.77;1.70;;;23.40;99.90;;;;;;7282055;19;20195;-74
2023/07/15 09:25:27;;;;;;;3.77;1.60;;;23.40;99.90;;;;;;7282876;19;20656;-74
2023/07/15 09:27:54;;;;;;;5.73;1.80;;;23.30;99.90;;;;;;7281953;19;20188;-74
2023/07/15 09:30:19;;;;;;;4.63;1.70;;;23.30;99.90;;;;;;7281805;19;20185;-74
2023/07/15 09:32:46;;;;;;;4.33;1.63;;;23.30;99.90;;;;;;7281791;19;20189;-74
2023/07/15 09:35:13;;;;;;;6.43;1.90;;;23.20;99.90;;;;;;7302527;19;20185;-75
2023/07/15 09:37:39;;;;;;;6.60;1.77;;;23.40;99.90;;;;;;7283582;19;20181;-75
2023/07/15 09:40:08;;;;;;;5.77;1.77;;;23.50;99.90;;;;;;7281514;19;20193;-74
2023/07/15 09:42:55;;;;;;;4.20;1.60;;;23.60;99.90;;;;;;7280720;19;20182;-74
2023/07/15 09:45:38;;;;;;;4.17;1.80;;;23.50;99.90;;;;;;7179844;19;2005167;-73
2023/07/15 09:48:16;;;;;;;5.13;1.70;;;23.70;99.90;;;;;;7281152;19;20197;-74
2023/07/15 09:50:42;;;;;;;7.10;2.47;;;23.70;99.90;;;;;;7282853;19;20644;-74
2023/07/15 09:53:09;;;;;;;6.30;1.90;;;24.10;99.90;;;;;;7281459;19;20638;-74
2023/07/15 09:55:36;;;;;;;3.88;1.63;;;24.10;99.90;;;;;;7280841;19;20208;-75
2023/07/15 09:58:12;;;;;;;5.23;1.67;;;24.00;99.90;;;;;;7281399;19;20256;-74
2023/07/15 10:00:42;;;;;;;5.25;1.55;;;24.10;99.90;;;;;;7279620;19;20181;-73
2023/07/15 10:03:16;;;;;;;4.70;1.70;;;24.60;99.90;;;;;;7281077;19;20200;-74
2023/07/15 10:05:42;;;;;;;4.20;1.70;;;24.80;99.90;;;;;;7281735;19;20282;-74
2023/07/15 10:08:08;;;;;;;5.13;1.85;;;25.20;99.90;;;;;;7281377;19;20640;-74
2023/07/15 10:10:34;;;;;;;5.40;1.90;;;25.30;99.90;;;;;;7282379;19;20185;-74
2023/07/15 10:13:01;;;;;;;3.03;1.70;;;25.60;99.90;;;;;;7281102;19;20189;-74
2023/07/15 10:15:27;;;;;;;5.68;1.70;;;25.80;99.90;;;;;;7280752;19;20180;-74
2023/07/15 10:17:52;;;;;;;3.88;1.58;;;26.70;99.90;;;;;;7280191;19;20197;-74
2023/07/15 10:20:18;;;;;;;3.85;1.42;;;27.30;99.90;;;;;;7280068;19;20707;-75
2023/07/15 10:22:44;;;;;;;3.25;1.45;;;28.30;99.90;;;;;;7289071;19;20199;-74
2023/07/15 10:25:12;;;;;;;4.32;1.67;;;30.00;99.90;;;;;;7302159;19;20686;-75
2023/07/15 10:27:38;;;;;;;4.40;1.25;;;30.70;99.90;;;;;;7279963;19;20188;-75
2023/07/15 10:30:28;;;;;;;4.60;1.23;;;31.00;99.90;;;;;;7275447;19;20269;-75
2023/07/15 10:33:09;;;;;;;6.40;1.60;;;32.90;99.90;;;;;;7178178;19;2004466;-74
2023/07/15 10:35:47;;;;;;;4.03;1.23;;;31.70;99.90;;;;;;7279793;19;20200;-74
2023/07/15 10:38:26;;;;;;;3.30;1.20;;;32.10;99.90;;;;;;7277811;19;20188;-74
2023/07/15 10:40:59;;;;;;;6.43;1.40;;;33.60;99.90;;;;;;7278877;19;20586;-74
2023/07/15 10:43:34;;;;;;;7.15;1.50;;;32.50;99.90;;;;;;7280920;19;20192;-74
2023/07/15 10:46:02;;;;;;;5.28;1.55;;;31.10;99.90;;;;;;7280053;19;20193;-74
2023/07/15 10:48:28;;;;;;;3.20;1.30;;;29.70;99.90;;;;;;7278010;19;20667;-74
2023/07/15 10:50:55;;;;;;;6.80;1.40;;;29.80;99.90;;;;;;7281751;19;20193;-75
2023/07/15 10:53:23;;;;;;;2.83;1.17;;;31.40;99.90;;;;;;7280437;19;20544;-73
2023/07/15 10:55:55;;;;;;;5.03;1.40;;;31.80;99.90;;;;;;7278466;19;20245;-74
2023/07/15 10:58:21;;;;;;;4.75;1.35;;;31.90;99.90;;;;;;7280092;19;20212;-74
2023/07/15 11:00:46;;;;;;;5.60;1.60;;;30.70;99.90;;;;;;7277708;19;20184;-74
2023/07/15 11:03:12;;;;;;;6.97;1.80;;;30.20;99.90;;;;;;7301214;19;20200;-74
2023/07/15 11:05:38;;;;;;;5.93;1.73;;;29.70;99.90;;;;;;7279913;19;20284;-74
2023/07/15 11:08:08;;;;;;;5.13;1.50;;;29.20;99.90;;;;;;7278207;19;20193;-74
2023/07/15 11:10:34;;;;;;;5.75;1.40;;;29.40;99.90;;;;;;7278973;19;20623;-74
2023/07/15 11:13:14;;;;;;;5.78;1.30;;;29.00;99.90;;;;;;7278891;19;20180;-73
2023/07/15 11:15:40;;;;;;;3.58;1.20;;;28.70;99.90;;;;;;7278390;19;20200;-74
2023/07/15 11:18:06;;;;;;;4.00;1.13;;;28.80;99.90;;;;;;7279326;19;20208;-74
2023/07/15 11:20:33;;;;;;;6.10;1.40;;;28.90;99.90;;;;;;7279278;19;20616;-74
2023/07/15 11:22:59;;;;;;;5.03;1.48;;;29.20;99.90;;;;;;7278453;19;20188;-74
2023/07/15 11:25:28;;;;;;;5.38;1.40;;;29.00;99.90;;;;;;7280117;19;20189;-74
2023/07/15 11:27:59;;;;;;;4.85;1.58;;;29.30;99.90;;;;;;7278616;19;20189;-74
2023/07/15 11:30:24;;;;;;;4.50;1.40;;;29.10;99.90;;;;;;7279392;19;20192;-75
2023/07/15 11:32:54;;;;;;;3.88;1.50;;;29.20;99.90;;;;;;7279872;19;20260;-74
2023/07/15 11:35:22;;;;;;;4.00;1.30;;;29.90;99.90;;;;;;7276597;19;20618;-74
2023/07/15 11:37:47;;;;;;;4.25;1.50;;;29.70;99.90;;;;;;7278783;19;20212;-75
2023/07/15 11:40:19;;;;;;;6.18;1.63;;;30.40;99.90;;;;;;7291491;19;20193;-75
2023/07/15 11:42:45;;;;;;;3.88;1.40;;;31.50;99.90;;;;;;7278157;19;20189;-73
2023/07/15 11:45:11;;;;;;;4.82;1.40;;;31.30;99.90;;;;;;7298303;19;20188;-74
2023/07/15 11:47:36;;;;;;;5.53;1.65;;;31.60;99.90;;;;;;7278333;19;20275;-74
2023/07/15 11:50:05;;;;;;;3.13;1.50;;;32.10;99.90;;;;;;7277037;19;20193;-73
2023/07/15 11:52:41;;;;;;;3.78;1.38;;;32.70;99.90;;;;;;7277655;19;20185;-74
2023/07/15 11:55:08;;;;;;;6.28;1.35;;;32.60;99.90;;;;;;7276224;19;20311;-74
2023/07/15 11:57:42;;;;;;;5.30;1.38;;;33.40;99.90;;;;;;7279553;19;20202;-74
2023/07/15 12:00:27;;;;;;;4.50;1.30;;;33.10;99.90;;;;;;7276813;19;20188;-74
2023/07/15 12:02:53;;;;;;;4.38;1.73;;;31.40;99.90;;;;;;7175082;19;2005227;-74
2023/07/15 12:05:19;;;;;;;6.43;1.90;;;30.60;99.90;;;;;;7275344;19;20654;-75
2023/07/15 12:07:52;;;;;;;6.47;1.48;;;30.30;99.90;;;;;;7277157;19;20176;-74
2023/07/15 12:10:19;;;;;;;3.70;1.40;;;30.40;99.90;;;;;;7275940;19;20180;-74
2023/07/15 12:12:45;;;;;;;4.75;1.52;;;30.30;99.90;;;;;;7280914;19;20189;-74
2023/07/15 12:15:16;;;;;;;4.85;1.40;;;30.50;99.90;;;;;;7299030;19;20273;-74
2023/07/15 12:17:43;;;;;;;4.72;1.65;;;30.80;99.90;;;;;;7276430;19;20200;-74
2023/07/15 12:20:10;;;;;;;4.35;1.48;;;30.70;99.90;;;;;;7276863;19;20185;-74
2023/07/15 12:22:36;;;;;;;4.90;1.60;;;30.20;99.90;;;;;;7277957;19;20637;-74
2023/07/15 12:25:02;;;;;;;7.18;1.80;;;30.00;99.90;;;;;;7276556;19;20653;-75
2023/07/15 12:27:30;;;;;;;6.70;1.50;;;29.90;99.90;;;;;;7276520;19;20551;-74
2023/07/15 12:29:56;;;;;;;5.00;1.52;;;29.10;99.90;;;;;;7277603;19;20197;-74
2023/07/15 12:32:22;;;;;;;3.80;1.45;;;28.20;99.90;;;;;;7277597;19;21688;-74
2023/07/15 12:34:48;;;;;;;4.18;1.30;;;27.90;99.90;;;;;;7275236;19;20276;-73
2023/07/15 12:37:14;;;;;;;5.72;1.38;;;27.50;99.90;;;;;;7285476;19;20197;-74
2023/07/15 12:39:40;;;;;;;5.25;1.55;;;27.50;99.90;;;;;;7294488;19;20244;-74
2023/07/15 12:42:05;;;;;;;5.85;2.17;;;27.50;99.90;;;;;;7273540;19;20193;-74
2023/07/15 12:44:31;;;;;;;4.68;1.40;;;27.50;99.90;;;;;;7276511;19;20200;-74